Date,TemperatureHighF,TemperatureAvgF,TemperatureLowF,DewpointHighF,DewpointAvgF,DewpointLowF,HumidityHigh,HumidityAvg,HumidityLow,PressureMaxIn,PressureMinIn,WindSpeedMaxMPH,WindSpeedAvgMPH,GustSpeedMaxMPH,PrecipitationSumIn
2013-3-1,29,26,25,23,19,18,80,74,68,29.92,29.77,19,7,0,0.00
2013-3-2,29,25,22,19,17,14,77,73,65,29.88,29.85,10,4,0,0.00
2013-3-3,29,22,15,16,13,11,85,69,50,29.86,29.81,11,3,0,0.01
2013-3-4,42,24,11,15,12,7,86,63,31,29.96,29.86,5,2,0,0.02
2013-3-5,37,27,15,22,19,11,85,71,52,29.96,29.67,9,4,0,0.00
2013-3-6,43,34,27,28,25,20,82,70,53,30.03,29.68,11,5,0,0.00
2013-3-7,37,32,25,28,24,18,85,73,62,30.22,30.02,10,2,0,0.00
2013-3-8,47,32,21,26,22,16,87,66,41,30.32,30.22,7,2,0,0.00
2013-3-9,45,34,23,30,26,21,91,75,54,30.25,29.87,9,2,0,0.00
2013-3-10,62,48,32,42,35,28,85,62,41,29.87,29.63,14,3,0,0.00
2013-3-11,55,48,38,45,40,31,89,75,56,29.65,29.28,16,7,0,0.35
2013-3-12,39,35,29,31,27,22,80,73,61,29.72,29.48,15,5,0,0.00
2013-3-13,35,29,26,26,18,12,87,64,43,29.98,29.65,12,6,0,0.00
2013-3-14,43,30,20,19,15,11,75,55,34,30.06,29.88,10,3,0,0.00
2013-3-15,40,34,29,32,26,16,89,72,51,29.87,29.66,8,3,0,0.03
2013-3-16,32,28,23,26,23,18,89,81,69,29.85,29.60,9,4,0,0.00
2013-3-17,31,26,18,21,15,12,79,65,51,30.09,29.84,11,5,0,0.00
2013-3-18,34,28,18,32,23,12,92,81,70,30.03,29.35,10,4,0,0.11
2013-3-19,34,27,24,30,20,16,85,74,64,29.73,29.41,14,7,0,0.03
2013-3-20,32,24,17,17,14,9,75,64,50,29.74,29.69,11,4,0,0.00
2013-3-21,33,24,15,23,16,9,81,72,61,29.73,29.64,12,5,0,0.00
2013-3-22,41,30,25,24,19,16,77,63,50,29.83,29.71,9,4,0,0.00
2013-3-23,41,32,24,26,22,20,84,67,52,29.91,29.82,8,2,0,0.00
2013-3-24,38,29,20,28,22,18,91,76,54,29.88,29.46,11,4,0,0.00
2013-3-25,39,34,31,27,25,23,76,69,61,29.70,29.40,14,8,0,0.00
2013-3-26,47,38,33,30,27,25,76,67,48,29.90,29.70,10,4,0,0.00
2013-3-27,49,39,30,29,26,22,75,60,41,30.00,29.90,9,5,0,0.00
2013-3-28,52,41,33,30,26,23,68,55,37,30.08,29.99,8,3,0,0.00
2013-3-29,55,42,31,25,22,21,65,48,28,30.10,30.00,7,2,0,0.00
2013-3-30,57,42,25,30,24,19,82,52,23,30.03,29.75,11,4,0,0.00
2013-3-31,60,45,32,42,33,24,84,64,39,29.75,29.41,11,3,0,0.03